createdAt,value
2018-08-06T00:01:29.340Z,13.87
2018-08-06T00:03:56.456Z,13.87
2018-08-06T00:06:23.500Z,13.97
2018-08-06T00:08:50.626Z,14.37
2018-08-06T00:11:17.840Z,13.73
2018-08-06T00:13:45.844Z,13.87
2018-08-06T00:16:12.959Z,14.17
2018-08-06T00:18:40.113Z,13.67
2018-08-06T00:21:07.971Z,14.53
2018-08-06T00:23:35.369Z,14.77
2018-08-06T00:26:02.730Z,13.57
2018-08-06T00:28:29.799Z,13.63
2018-08-06T00:30:57.825Z,14.37
2018-08-06T00:33:24.931Z,13.57
2018-08-06T00:35:51.948Z,13.37
2018-08-06T00:38:19.057Z,13.27
2018-08-06T00:40:46.146Z,13.60
2018-08-06T00:43:14.012Z,13.17
2018-08-06T00:45:41.110Z,15.30
2018-08-06T00:48:08.207Z,15.40
2018-08-06T00:50:35.806Z,14.33
2018-08-06T00:55:42.393Z,15.47
2018-08-06T00:58:09.434Z,15.37
2018-08-06T01:00:37.379Z,15.83
2018-08-06T01:03:04.489Z,13.80
2018-08-06T01:05:31.518Z,14.83
2018-08-06T01:07:58.619Z,14.13
2018-08-06T01:10:26.026Z,15.00
2018-08-06T01:12:53.080Z,13.03
2018-08-06T01:15:20.147Z,14.93
2018-08-06T01:17:47.245Z,14.90
2018-08-06T01:20:14.318Z,13.77
2018-08-06T01:22:41.330Z,14.43
2018-08-06T01:25:08.401Z,15.47
2018-08-06T01:27:35.433Z,14.63
2018-08-06T01:30:03.006Z,16.30
2018-08-06T01:32:30.077Z,15.13
2018-08-06T01:34:57.172Z,15.57
2018-08-06T01:37:24.413Z,15.50
2018-08-06T01:39:51.693Z,14.90
2018-08-06T01:42:18.713Z,14.97
2018-08-06T01:44:45.732Z,15.07
2018-08-06T01:47:13.522Z,14.97
2018-08-06T01:49:40.530Z,15.20
2018-08-06T01:52:07.555Z,15.63
2018-08-06T01:54:34.998Z,14.43
2018-08-06T01:57:02.095Z,15.57
2018-08-06T01:59:29.111Z,15.30
2018-08-06T02:01:56.204Z,14.87
2018-08-06T02:04:23.224Z,15.33
2018-08-06T02:06:50.993Z,15.40
2018-08-06T02:09:18.060Z,15.80
2018-08-06T02:14:24.597Z,16.00
2018-08-06T02:16:51.707Z,14.00
2018-08-06T02:19:19.223Z,15.60
2018-08-06T02:21:46.734Z,15.77
2018-08-06T02:24:14.694Z,14.63
2018-08-06T02:26:41.750Z,14.70
2018-08-06T02:29:08.853Z,16.00
2018-08-06T02:31:35.855Z,15.37
2018-08-06T02:34:02.910Z,16.40
2018-08-06T02:36:30.142Z,16.60
2018-08-06T02:38:57.162Z,16.13
2018-08-06T02:41:25.032Z,15.60
2018-08-06T02:43:52.107Z,15.50
2018-08-06T02:46:19.138Z,15.50
2018-08-06T02:48:46.251Z,15.73
2018-08-06T02:51:13.330Z,15.83
2018-08-06T02:53:40.373Z,15.57
2018-08-06T02:56:07.397Z,15.67
2018-08-06T02:58:34.498Z,15.50
2018-08-06T03:01:01.523Z,15.60
2018-08-06T03:03:28.569Z,15.47
2018-08-06T03:05:56.577Z,15.73
2018-08-06T03:08:23.636Z,15.63
2018-08-06T03:10:51.620Z,16.83
2018-08-06T03:13:18.719Z,15.63
2018-08-06T03:15:45.743Z,15.67
2018-08-06T03:18:13.735Z,15.10
2018-08-06T03:20:40.799Z,17.03
2018-08-06T03:25:46.380Z,16.02
2018-08-06T03:28:13.454Z,15.77
2018-08-06T03:30:40.521Z,15.37
2018-08-06T03:33:07.624Z,16.10
2018-08-06T03:35:34.659Z,14.77
2018-08-06T03:38:01.683Z,16.80
2018-08-06T03:40:29.507Z,15.90
2018-08-06T03:42:56.608Z,16.67
2018-08-06T03:45:23.630Z,14.63
2018-08-06T03:47:50.684Z,15.73
2018-08-06T03:50:18.063Z,16.53
2018-08-06T03:52:46.127Z,15.63
2018-08-06T03:55:13.808Z,16.30
2018-08-06T03:57:41.531Z,16.17
2018-08-06T04:00:08.566Z,17.00
2018-08-06T04:02:35.682Z,15.97
2018-08-06T04:05:04.132Z,15.37
2018-08-06T04:07:32.137Z,17.13
2018-08-06T04:09:59.582Z,16.23
2018-08-06T04:12:26.702Z,16.50
2018-08-06T04:14:53.715Z,15.23
2018-08-06T04:17:20.819Z,16.33
2018-08-06T04:19:47.982Z,16.57
2018-08-06T04:22:15.043Z,15.40
2018-08-06T04:24:44.148Z,16.47
2018-08-06T04:27:11.290Z,16.90
2018-08-06T04:29:38.304Z,16.77
2018-08-06T04:32:05.385Z,16.27
2018-08-06T04:34:32.451Z,15.53
2018-08-06T04:36:59.894Z,16.23
2018-08-06T04:39:26.978Z,16.63
2018-08-06T04:44:32.489Z,18.77
2018-08-06T04:46:59.487Z,17.47
2018-08-06T04:49:26.494Z,18.50
2018-08-06T04:51:53.538Z,16.60
2018-08-06T04:54:21.144Z,17.97
2018-08-06T04:56:48.164Z,16.60
2018-08-06T04:59:15.379Z,16.70
2018-08-06T05:01:42.387Z,17.10
2018-08-06T05:04:09.388Z,16.27
2018-08-06T05:06:36.973Z,17.70
2018-08-06T05:09:03.978Z,17.60
2018-08-06T05:11:31.000Z,18.33
2018-08-06T05:13:58.131Z,16.97
2018-08-06T05:16:25.215Z,16.63
2018-08-06T05:18:52.279Z,18.87
2018-08-06T05:21:19.315Z,17.33
2018-08-06T05:23:46.326Z,16.23
2018-08-06T05:26:13.334Z,17.77
2018-08-06T05:28:40.412Z,16.97
2018-08-06T05:31:07.514Z,17.20
2018-08-06T05:33:34.483Z,16.57
2018-08-06T05:36:01.563Z,17.53
2018-08-06T05:38:28.580Z,18.20
2018-08-06T05:40:55.624Z,17.10
2018-08-06T05:43:22.669Z,17.63
2018-08-06T05:45:49.659Z,19.20
2018-08-06T05:48:16.659Z,18.60
2018-08-06T05:50:43.794Z,18.50
2018-08-06T05:53:11.757Z,18.67
2018-08-06T05:55:38.756Z,18.07
2018-08-06T05:58:05.795Z,19.77
2018-08-06T06:03:11.354Z,19.00
2018-08-06T06:05:38.345Z,17.77
2018-08-06T06:08:05.936Z,17.23
2018-08-06T06:10:32.950Z,17.47
2018-08-06T06:12:59.975Z,17.00
2018-08-06T06:15:27.007Z,16.97
2018-08-06T06:17:54.131Z,16.20
2018-08-06T06:20:21.259Z,17.50
2018-08-06T06:22:48.971Z,18.30
2018-08-06T06:25:16.049Z,17.67
2018-08-06T06:27:43.158Z,18.90
2018-08-06T06:30:10.994Z,20.73
2018-08-06T06:32:38.168Z,19.13
2018-08-06T06:35:06.057Z,19.57
2018-08-06T06:37:34.588Z,18.90
2018-08-06T06:40:01.683Z,19.27
2018-08-06T06:42:29.086Z,17.67
2018-08-06T06:44:56.972Z,17.77
2018-08-06T06:47:24.118Z,17.77
2018-08-06T06:49:51.986Z,15.83
2018-08-06T06:52:19.012Z,17.60
2018-08-06T06:54:46.085Z,15.93
2018-08-06T06:57:13.193Z,15.90
2018-08-06T06:59:40.258Z,16.37
2018-08-06T07:02:07.392Z,15.37
2018-08-06T07:04:34.425Z,15.73
2018-08-06T07:07:01.763Z,15.47
2018-08-06T07:14:39.461Z,14.90
2018-08-06T07:17:07.166Z,14.80
2018-08-06T07:19:34.224Z,15.00
2018-08-06T07:22:01.305Z,16.17
2018-08-06T07:24:28.413Z,15.17
2018-08-06T07:26:55.441Z,15.07
2018-08-06T07:29:22.630Z,14.67
2018-08-06T07:31:49.777Z,15.70
2018-08-06T07:34:16.918Z,15.13
2018-08-06T07:36:44.021Z,14.37
2018-08-06T07:39:11.035Z,14.63
2018-08-06T07:41:38.807Z,14.30
2018-08-06T07:44:06.006Z,14.40
2018-08-06T07:46:33.240Z,13.70
2018-08-06T07:49:00.275Z,13.17
2018-08-06T07:51:27.387Z,14.13
2018-08-06T07:53:54.439Z,13.13
2018-08-06T07:56:22.056Z,13.67
2018-08-06T07:58:49.237Z,13.83
2018-08-06T08:01:16.934Z,15.07
2018-08-06T08:03:43.982Z,13.13
2018-08-06T08:06:11.076Z,13.70
2018-08-06T08:08:38.201Z,13.37
2018-08-06T08:11:05.227Z,13.23
2018-08-06T08:13:32.295Z,14.07
2018-08-06T08:16:00.279Z,13.80
2018-08-06T08:18:27.388Z,12.97
2018-08-06T08:20:54.527Z,13.47
2018-08-06T08:23:21.563Z,12.47
2018-08-06T08:28:27.721Z,13.53
2018-08-06T08:30:54.737Z,13.68
2018-08-06T08:33:21.993Z,12.70
2018-08-06T08:35:49.948Z,12.13
2018-08-06T08:38:17.399Z,12.53
2018-08-06T08:43:25.572Z,13.77
2018-08-06T08:45:52.698Z,13.13
2018-08-06T08:48:19.722Z,12.48
2018-08-06T08:50:46.957Z,12.43
2018-08-06T08:53:14.833Z,14.30
2018-08-06T08:55:42.837Z,12.77
2018-08-06T09:00:48.999Z,12.80
2018-08-06T09:03:16.074Z,12.13
2018-08-06T09:05:43.924Z,11.93
2018-08-06T09:08:11.904Z,11.80
2018-08-06T09:10:38.977Z,12.10
2018-08-06T09:13:06.013Z,13.05
2018-08-06T09:15:34.351Z,12.27
2018-08-06T09:18:01.428Z,12.85
2018-08-06T09:20:28.479Z,12.68
2018-08-06T09:22:55.524Z,12.70
2018-08-06T09:25:22.620Z,12.10
2018-08-06T09:27:49.661Z,12.45
2018-08-06T09:30:16.683Z,13.48
2018-08-06T09:32:44.633Z,12.60
2018-08-06T09:35:11.664Z,12.82
2018-08-06T09:37:38.688Z,13.48
2018-08-06T09:40:06.082Z,13.82
2018-08-06T09:42:33.113Z,14.02
2018-08-06T09:45:01.011Z,14.70
2018-08-06T09:47:28.104Z,15.32
2018-08-06T09:49:56.366Z,14.50
2018-08-06T09:52:23.464Z,13.88
2018-08-06T09:54:51.353Z,12.88
2018-08-06T09:57:18.377Z,13.48
2018-08-06T09:59:46.340Z,14.52
2018-08-06T10:02:13.456Z,13.88
2018-08-06T10:04:40.464Z,13.38
2018-08-06T10:07:07.516Z,13.62
2018-08-06T10:12:14.064Z,15.33
2018-08-06T10:14:41.147Z,15.10
2018-08-06T10:17:08.166Z,14.30
2018-08-06T10:19:35.190Z,14.38
2018-08-06T10:22:02.262Z,14.23
2018-08-06T10:24:29.331Z,13.73
2018-08-06T10:26:56.311Z,14.68
2018-08-06T10:29:23.396Z,15.10
2018-08-06T10:31:50.404Z,14.30
2018-08-06T10:34:17.442Z,13.90
2018-08-06T10:36:44.504Z,14.15
2018-08-06T10:39:11.531Z,14.15
2018-08-06T10:41:38.553Z,14.20
2018-08-06T10:44:05.610Z,13.52
2018-08-06T10:46:32.721Z,14.32
2018-08-06T10:48:59.828Z,14.07
2018-08-06T10:51:27.437Z,12.93
2018-08-06T10:53:54.553Z,13.05
2018-08-06T10:56:21.983Z,13.15
2018-08-06T10:58:49.136Z,13.57
2018-08-06T11:01:16.568Z,11.93
2018-08-06T11:03:44.060Z,13.23
2018-08-06T11:06:11.310Z,12.77
2018-08-06T11:08:38.360Z,12.23
2018-08-06T11:11:05.384Z,13.23
2018-08-06T11:13:32.454Z,12.98
2018-08-06T11:15:59.650Z,12.05
2018-08-06T11:18:26.676Z,11.77
2018-08-06T11:20:53.731Z,12.25
2018-08-06T11:23:21.356Z,12.50
2018-08-06T11:25:48.381Z,12.18
2018-08-06T11:28:15.509Z,11.45
2018-08-06T11:30:42.546Z,10.82
2018-08-06T11:35:49.940Z,11.17
2018-08-06T11:38:16.934Z,11.32
2018-08-06T11:40:43.957Z,10.43
2018-08-06T11:43:11.061Z,11.38
2018-08-06T11:45:38.931Z,10.93
2018-08-06T11:48:05.943Z,11.20
2018-08-06T11:50:32.989Z,9.85
2018-08-06T11:52:59.997Z,10.57
2018-08-06T11:55:27.100Z,9.98
2018-08-06T11:57:54.170Z,9.32
2018-08-06T12:00:21.178Z,9.30
2018-08-06T12:02:48.190Z,9.00
2018-08-06T12:05:15.244Z,9.55
2018-08-06T12:07:42.262Z,9.05
2018-08-06T12:10:09.376Z,9.10
2018-08-06T12:12:36.424Z,8.10
2018-08-06T12:15:03.432Z,8.05
2018-08-06T12:17:30.513Z,8.68
2018-08-06T12:19:57.555Z,8.98
2018-08-06T12:22:24.605Z,7.78
2018-08-06T12:24:51.584Z,7.90
2018-08-06T12:27:18.754Z,7.00
2018-08-06T12:29:45.688Z,7.30
2018-08-06T12:32:13.803Z,6.95
2018-08-06T12:34:40.853Z,6.60
2018-08-06T12:37:07.869Z,7.60
2018-08-06T12:39:34.886Z,7.80
2018-08-06T12:42:02.020Z,7.50
2018-08-06T12:44:29.023Z,6.93
2018-08-06T12:46:56.031Z,6.82
2018-08-06T12:49:23.204Z,7.28
2018-08-06T12:51:50.286Z,7.35
2018-08-06T12:56:58.747Z,8.23
2018-08-06T12:59:26.178Z,7.68
2018-08-06T13:01:53.193Z,8.05
2018-08-06T13:04:20.292Z,7.18
2018-08-06T13:06:47.317Z,6.95
2018-08-06T13:09:14.342Z,6.90
2018-08-06T13:11:41.388Z,6.00
2018-08-06T13:14:08.376Z,6.25
2018-08-06T13:16:35.378Z,6.60
2018-08-06T13:19:02.434Z,5.97
2018-08-06T13:21:29.454Z,6.30
2018-08-06T13:23:56.452Z,6.47
2018-08-06T13:26:23.594Z,6.70
2018-08-06T13:28:50.605Z,6.37
2018-08-06T13:31:17.636Z,6.68
2018-08-06T13:33:44.712Z,6.55
2018-08-06T13:36:11.729Z,6.90
2018-08-06T13:38:38.768Z,6.75
2018-08-06T13:41:05.797Z,6.90
2018-08-06T13:43:32.791Z,6.65
2018-08-06T13:45:59.786Z,7.07
2018-08-06T13:48:26.855Z,7.22
2018-08-06T13:50:53.875Z,7.05
2018-08-06T13:53:20.913Z,6.55
2018-08-06T13:55:47.946Z,7.20
2018-08-06T13:58:14.961Z,7.47
2018-08-06T14:00:41.972Z,7.57
2018-08-06T14:03:09.030Z,7.40
2018-08-06T14:08:14.615Z,7.57
2018-08-06T14:10:41.615Z,7.47
2018-08-06T14:13:08.621Z,7.93
2018-08-06T14:15:35.673Z,7.90
2018-08-06T14:18:02.690Z,7.95
2018-08-06T14:20:29.716Z,8.18
2018-08-06T14:22:56.787Z,8.70
2018-08-06T14:25:24.793Z,8.10
2018-08-06T14:27:51.804Z,8.50
2018-08-06T14:30:18.859Z,8.20
2018-08-06T14:32:46.845Z,8.52
2018-08-06T14:35:13.861Z,8.63
2018-08-06T14:37:40.971Z,8.40
2018-08-06T14:40:07.967Z,8.73
2018-08-06T14:42:34.983Z,8.70
2018-08-06T14:45:02.041Z,8.50
2018-08-06T14:47:29.061Z,8.88
2018-08-06T14:49:56.069Z,8.18
2018-08-06T14:52:23.150Z,8.32
2018-08-06T14:54:50.573Z,8.35
2018-08-06T14:57:17.592Z,9.05
2018-08-06T14:59:44.680Z,8.43
2018-08-06T15:02:11.682Z,8.43
2018-08-06T15:04:38.718Z,8.55
2018-08-06T15:07:05.802Z,8.60
2018-08-06T15:09:32.814Z,8.38
2018-08-06T15:11:59.835Z,9.10
2018-08-06T15:14:26.908Z,7.85
2018-08-06T15:16:53.947Z,8.50
2018-08-06T15:19:22.154Z,6.65
2018-08-06T15:24:27.740Z,5.47
2018-08-06T15:26:54.815Z,5.15
2018-08-06T15:29:23.154Z,5.10
2018-08-06T15:31:50.179Z,5.30
2018-08-06T15:34:17.291Z,5.62
2018-08-06T15:36:44.296Z,5.45
2018-08-06T15:39:11.330Z,5.25
2018-08-06T15:41:38.420Z,5.97
2018-08-06T15:44:05.420Z,5.28
2018-08-06T15:46:32.480Z,5.28
2018-08-06T15:48:59.577Z,5.43
2018-08-06T15:51:26.591Z,5.20
2018-08-06T15:53:53.612Z,6.33
2018-08-06T15:56:20.683Z,6.07
2018-08-06T15:58:47.731Z,6.30
2018-08-06T16:01:14.759Z,5.73
2018-08-06T16:03:41.875Z,6.57
2018-08-06T16:06:08.851Z,5.73
2018-08-06T16:08:35.886Z,5.50
2018-08-06T16:11:03.834Z,5.73
2018-08-06T16:13:30.843Z,5.77
2018-08-06T16:15:57.903Z,5.57
2018-08-06T16:18:24.963Z,5.37
2018-08-06T16:20:52.557Z,4.80
2018-08-06T16:23:20.534Z,4.70
2018-08-06T16:25:48.573Z,4.90
2018-08-06T16:28:15.585Z,4.47
2018-08-06T16:30:42.617Z,4.50
2018-08-06T16:33:09.703Z,5.80
2018-08-06T16:35:36.732Z,6.03
2018-08-06T16:40:42.294Z,5.20
2018-08-06T16:43:09.331Z,4.93
2018-08-06T16:45:36.358Z,4.67
2018-08-06T16:48:03.424Z,5.43
2018-08-06T16:50:30.496Z,4.07
2018-08-06T16:52:57.504Z,5.60
2018-08-06T16:55:24.569Z,6.53
2018-08-06T16:57:51.584Z,6.20
2018-08-06T17:00:19.584Z,6.23
2018-08-06T17:02:46.694Z,5.50
2018-08-06T17:05:13.704Z,6.63
2018-08-06T17:07:40.727Z,6.80
2018-08-06T17:10:07.806Z,7.10
2018-08-06T17:12:34.880Z,7.30
2018-08-06T17:17:44.448Z,6.70
2018-08-06T17:20:11.512Z,6.33
2018-08-06T17:22:38.488Z,6.77
2018-08-06T17:25:05.641Z,6.60
2018-08-06T17:27:32.641Z,6.73
2018-08-06T17:29:59.657Z,5.93
2018-08-06T17:43:00.886Z,6.43
2018-08-06T17:45:33.936Z,6.90
2018-08-06T17:48:01.066Z,6.63
2018-08-06T17:50:29.109Z,7.17
2018-08-06T17:52:56.110Z,7.60
2018-08-06T17:55:24.124Z,7.73
2018-08-06T17:57:51.135Z,7.47
2018-08-06T18:00:18.134Z,6.70
2018-08-06T18:08:02.978Z,6.63
2018-08-06T18:10:29.988Z,6.27
2018-08-06T18:12:56.987Z,7.53
2018-08-06T18:15:24.109Z,6.87
2018-08-06T18:17:51.119Z,7.27
2018-08-06T18:20:18.103Z,7.23
2018-08-06T18:22:45.190Z,8.43
2018-08-06T18:25:12.719Z,8.57
2018-08-06T18:27:39.763Z,7.83
2018-08-06T18:30:06.810Z,9.33
2018-08-06T18:32:33.813Z,8.63
2018-08-06T18:35:02.060Z,8.70
2018-08-06T18:37:29.178Z,10.20
2018-08-06T18:39:59.205Z,9.67
2018-08-06T18:42:26.149Z,9.57
2018-08-06T18:50:14.062Z,6.07
2018-08-06T18:52:41.086Z,5.77
2018-08-06T18:55:08.073Z,4.43
2018-08-06T19:05:21.239Z,6.05
2018-08-06T19:07:51.434Z,4.27
2018-08-06T19:10:18.085Z,3.90
2018-08-06T19:12:45.168Z,6.87
2018-08-06T19:15:12.237Z,6.50
2018-08-06T19:17:39.292Z,6.07
2018-08-06T19:20:06.425Z,4.90
2018-08-06T19:22:33.603Z,4.73
2018-08-06T19:25:00.616Z,4.50
2018-08-06T19:27:27.643Z,4.80
2018-08-06T19:29:54.760Z,7.43
2018-08-06T19:32:22.770Z,8.37
2018-08-06T19:34:49.820Z,8.13
2018-08-06T19:37:16.894Z,8.13
2018-08-06T19:39:43.946Z,8.60
2018-08-06T19:42:10.975Z,8.33
2018-08-06T19:44:38.039Z,8.63
2018-08-06T19:49:44.010Z,10.35
2018-08-06T19:52:11.256Z,9.97
2018-08-06T19:54:38.372Z,10.17
2018-08-06T19:57:05.394Z,9.97
2018-08-06T19:59:32.379Z,9.00
2018-08-06T20:01:59.431Z,8.87
2018-08-06T20:04:26.521Z,8.10
2018-08-06T20:06:53.537Z,8.40
2018-08-06T20:09:20.541Z,7.50
2018-08-06T20:11:47.625Z,7.23
2018-08-06T20:14:15.485Z,8.37
2018-08-06T20:16:44.292Z,10.40
2018-08-06T20:19:10.844Z,9.73
2018-08-06T20:21:38.768Z,10.40
2018-08-06T20:24:05.822Z,9.23
2018-08-06T20:26:32.952Z,10.20
2018-08-06T20:29:00.043Z,10.13
2018-08-06T20:31:27.126Z,9.80
2018-08-06T20:33:54.393Z,9.77
2018-08-06T20:36:21.900Z,10.17
2018-08-06T20:38:49.883Z,9.87
2018-08-06T20:43:55.331Z,10.75
2018-08-06T20:46:22.444Z,10.03
2018-08-06T20:48:49.480Z,9.03
2018-08-06T20:51:16.524Z,9.13
2018-08-06T20:53:43.635Z,8.83
2018-08-06T20:56:10.653Z,9.20
2018-08-06T20:58:37.710Z,9.27
2018-08-06T21:01:04.834Z,9.57
2018-08-06T21:03:31.899Z,9.30
2018-08-06T21:05:58.967Z,7.93
2018-08-06T21:08:26.201Z,8.10
2018-08-06T21:10:53.605Z,8.50
2018-08-06T21:13:20.728Z,7.27
2018-08-06T21:15:50.016Z,7.87
2018-08-06T21:18:17.850Z,7.20
2018-08-06T21:20:45.170Z,7.00
2018-08-06T21:23:12.393Z,7.13
2018-08-06T21:25:39.470Z,6.83
2018-08-06T21:28:06.554Z,7.17
2018-08-06T21:30:33.712Z,7.23
2018-08-06T21:33:00.767Z,6.43
2018-08-06T21:35:28.610Z,6.07
2018-08-06T21:40:47.751Z,5.80
2018-08-06T21:43:23.954Z,5.10
2018-08-06T21:48:36.747Z,5.43
2018-08-06T21:51:03.778Z,5.40
2018-08-06T21:53:31.258Z,4.63
2018-08-06T21:55:58.424Z,5.30
2018-08-06T22:01:03.504Z,5.62
2018-08-06T22:03:30.597Z,5.10
2018-08-06T22:05:57.618Z,5.57
2018-08-06T22:08:25.092Z,4.80
2018-08-06T22:10:52.235Z,5.03
2018-08-06T22:13:19.272Z,4.17
2018-08-06T22:15:46.452Z,4.30
2018-08-06T22:20:54.702Z,4.47
2018-08-06T22:23:21.762Z,4.17
2018-08-06T22:28:27.820Z,6.40
2018-08-06T22:30:54.871Z,6.13
2018-08-06T22:33:21.902Z,6.10
2018-08-06T22:35:49.892Z,6.90
2018-08-06T22:38:16.940Z,7.17
2018-08-06T22:40:44.097Z,6.23
2018-08-06T22:43:11.842Z,5.53
2018-08-06T22:48:14.374Z,5.43
2018-08-06T22:50:41.581Z,4.47
2018-08-06T22:53:08.994Z,5.20
2018-08-06T22:55:36.126Z,4.90
2018-08-06T23:00:36.880Z,5.87
2018-08-06T23:08:22.140Z,6.72
2018-08-06T23:10:49.713Z,6.13
2018-08-06T23:13:16.939Z,6.17
2018-08-06T23:15:44.025Z,6.33
2018-08-06T23:18:11.184Z,5.93
2018-08-06T23:20:38.382Z,6.03
2018-08-06T23:23:05.492Z,6.60
2018-08-06T23:25:33.103Z,6.23
2018-08-06T23:28:00.555Z,6.50
2018-08-06T23:30:27.574Z,6.07
2018-08-06T23:32:54.661Z,6.70
2018-08-06T23:35:21.691Z,6.17
2018-08-06T23:37:48.749Z,6.47
2018-08-06T23:40:16.428Z,7.10
2018-08-06T23:42:44.485Z,6.13
2018-08-06T23:45:11.597Z,6.17
2018-08-06T23:47:42.436Z,5.93
2018-08-06T23:50:09.564Z,5.77
2018-08-06T23:52:36.582Z,5.80
2018-08-06T23:57:43.524Z,5.53
